Time;durP1;ratioP1;P1;durP2;ratioP2;P2;SDS_P1;SDS_P2;PMS_P1;PMS_P2;Temp;Humidity;BMP_temperature;BMP_pressure;BME280_temperature;BME280_humidity;BME280_pressure;Samples;Min_cycle;Max_cycle;Signal;HPM_P1;HPM_P2
2023/02/02 00:01:36;;;;;;;4.60;1.57;;;;;;;4.26;91.24;100263.22;4994494;28;20180;-82
2023/02/02 00:04:02;;;;;;;7.53;1.23;;;;;;;4.31;90.24;100272.13;4994562;28;20178;-82
2023/02/02 00:06:30;;;;;;;7.93;1.67;;;;;;;4.32;90.40;100272.94;4994451;28;20175;-82
2023/02/02 00:08:57;;;;;;;13.70;2.23;;;;;;;4.33;90.26;100274.56;4994521;28;20219;-82
2023/02/02 00:11:23;;;;;;;2.73;1.83;;;;;;;4.31;90.62;100272.13;4994259;28;20177;-82
2023/02/02 00:13:48;;;;;;;9.60;2.73;;;;;;;4.34;90.46;100270.78;4994320;28;20174;-82
2023/02/02 00:16:26;;;;;;;8.97;2.13;;;;;;;4.32;90.47;100262.13;4994479;28;20176;-80
2023/02/02 00:18:52;;;;;;;8.93;1.80;;;;;;;4.22;90.48;100267.56;4993093;28;20185;-82
2023/02/02 00:21:17;;;;;;;9.43;1.37;;;;;;;4.18;90.66;100248.38;4994196;28;20526;-82
2023/02/02 00:23:42;;;;;;;15.13;2.27;;;;;;;4.21;90.81;100271.38;4994002;28;20180;-82
2023/02/02 00:26:08;;;;;;;12.83;1.93;;;;;;;4.13;90.89;100270.81;4994295;28;20209;-81
2023/02/02 00:28:34;;;;;;;11.40;1.67;;;;;;;4.17;90.93;100276.50;4994018;28;20209;-82
2023/02/02 00:30:59;;;;;;;7.10;1.93;;;;;;;4.16;91.13;100270.28;4994079;28;20174;-82
2023/02/02 00:33:24;;;;;;;13.27;2.90;;;;;;;4.22;91.71;100267.56;4992808;28;20259;-80
2023/02/02 00:35:53;;;;;;;9.47;1.97;;;;;;;4.25;91.17;100278.66;4993959;28;20172;-80
2023/02/02 00:38:18;;;;;;;1.97;1.43;;;;;;;4.16;91.90;100281.09;4993804;28;20616;-81
2023/02/02 00:40:44;;;;;;;12.17;1.80;;;;;;;4.14;91.98;100291.38;4993989;28;20259;-81
2023/02/02 00:43:09;;;;;;;7.77;2.87;;;;;;;4.22;91.73;100281.09;4993574;28;20374;-82
2023/02/02 00:45:35;;;;;;;5.33;2.10;;;;;;;4.25;91.01;100289.47;4993658;28;20637;-81
2023/02/02 00:48:00;;;;;;;17.83;2.07;;;;;;;4.34;90.74;100295.09;4993658;28;20239;-81
2023/02/02 00:50:25;;;;;;;0.93;0.57;;;;;;;4.43;89.54;100310.50;4993621;28;20695;-79
2023/02/02 00:52:51;;;;;;;7.67;1.13;;;;;;;4.41;89.90;100307.28;4993621;28;20527;-82
2023/02/02 00:55:16;;;;;;;8.60;2.10;;;;;;;4.42;90.55;100300.78;4993683;28;20181;-82
2023/02/02 00:57:43;;;;;;;2.07;1.30;;;;;;;4.48;90.15;100304.28;4993651;28;20178;-81
2023/02/02 01:00:12;;;;;;;9.07;1.67;;;;;;;4.40;90.54;100319.19;4993160;28;20793;-82
2023/02/02 01:02:37;;;;;;;8.20;1.80;;;;;;;4.38;91.16;100304.31;4993505;28;20182;-80
2023/02/02 01:05:02;;;;;;;5.80;1.73;;;;;;;4.40;90.81;100321.06;4993540;28;20181;-83
2023/02/02 01:07:28;;;;;;;16.10;2.13;;;;;;;4.41;90.72;100312.69;4993359;28;20237;-83
2023/02/02 01:09:53;;;;;;;8.27;2.27;;;;;;;4.40;90.19;100318.38;4993351;28;20687;-83
2023/02/02 01:12:18;;;;;;;6.27;1.53;;;;;;;4.39;90.14;100312.16;4993233;28;20216;-82
2023/02/02 01:14:44;;;;;;;17.47;2.67;;;;;;;4.47;89.44;100324.28;4993448;28;20582;-79
2023/02/02 01:17:09;;;;;;;6.70;2.17;;;;;;;4.44;89.13;100319.44;4993210;28;20284;-82
2023/02/02 01:19:34;;;;;;;9.83;1.80;;;;;;;4.37;88.63;100322.44;4993347;28;20567;-84
2023/02/02 01:22:00;;;;;;;4.57;2.27;;;;;;;4.36;88.60;100328.13;4992765;28;20559;-84
2023/02/02 01:24:25;;;;;;;11.67;1.67;;;;;;;4.32;88.89;100333.25;4993020;28;20633;-83
2023/02/02 01:26:50;;;;;;;3.90;0.63;;;;;;;4.26;89.19;100322.72;4993355;28;20196;-82
2023/02/02 01:29:16;;;;;;;10.27;0.83;;;;;;;4.28;88.44;100325.97;4993078;28;20665;-82
2023/02/02 01:31:41;;;;;;;3.07;1.63;;;;;;;4.27;88.57;100329.75;4992848;28;20641;-81
2023/02/02 01:34:07;;;;;;;10.50;2.20;;;;;;;4.23;88.59;100323.28;4992932;28;20188;-78
2023/02/02 01:36:32;;;;;;;10.50;2.60;;;;;;;4.29;87.89;100335.69;4992944;28;20208;-82
2023/02/02 01:38:58;;;;;;;5.73;1.03;;;;;;;4.27;88.20;100335.97;4993069;28;20271;-82
2023/02/02 01:41:24;;;;;;;11.13;0.80;;;;;;;4.29;88.19;100333.81;4992660;28;20271;-81
2023/02/02 01:44:02;;;;;;;10.50;2.63;;;;;;;4.35;88.47;100353.56;4992800;28;20181;-81
2023/02/02 01:46:28;;;;;;;15.80;2.30;;;;;;;4.40;88.86;100350.84;4992542;28;20188;-79
2023/02/02 01:49:02;;;;;;;4.33;2.27;;;;;;;4.41;88.27;100353.25;4992640;28;20177;-81
2023/02/02 01:51:53;;;;;;;8.37;1.53;;;;;;;4.41;87.97;100350.56;4991136;28;20203;-81
2023/02/02 01:54:24;;;;;;;12.23;1.60;;;;;;;4.42;87.30;100348.66;4992690;28;20193;-82
2023/02/02 01:56:55;;;;;;;3.27;1.80;;;;;;;4.37;87.08;100346.78;4991659;28;20224;-82
2023/02/02 01:59:21;;;;;;;3.80;2.27;;;;;;;4.30;87.95;100345.44;4992421;28;20211;-82
2023/02/02 02:01:47;;;;;;;7.50;2.20;;;;;;;4.25;88.69;100342.75;4992191;28;20184;-78
2023/02/02 02:04:13;;;;;;;8.03;1.93;;;;;;;4.28;88.78;100356.50;4992362;28;20200;-83
2023/02/02 02:06:39;;;;;;;8.33;1.50;;;;;;;4.34;88.41;100354.59;4992129;28;20652;-79
2023/02/02 02:09:06;;;;;;;2.00;1.33;;;;;;;4.35;88.73;100364.38;4992424;28;20467;-80
2023/02/02 02:11:33;;;;;;;10.60;1.30;;;;;;;4.35;88.91;100361.66;4991923;28;20176;-84
2023/02/02 02:16:58;;;;;;;4.87;1.13;;;;;;;4.32;89.98;100354.88;4992206;28;20176;-81
2023/02/02 02:29:01;;;;;;;5.80;1.90;;;;;;;4.45;89.97;100365.16;4987157;28;20200;-81
2023/02/02 02:31:54;;;;;;;1.13;1.03;;;;;;;4.47;89.00;100375.69;4991690;28;20659;-80
2023/02/02 02:34:33;;;;;;;9.07;1.60;;;;;;;4.44;88.64;100376.25;4991982;28;20180;-82
2023/02/02 02:37:15;;;;;;;3.77;0.70;;;;;;;4.38;88.82;100378.16;4991763;28;20183;-81
2023/02/02 02:39:57;;;;;;;10.70;1.93;;;;;;;4.36;88.50;100376.81;4991801;28;20579;-83
2023/02/02 02:42:26;;;;;;;7.80;2.83;;;;;;;4.42;88.05;100390.03;4991544;28;20169;-80
2023/02/02 02:44:55;;;;;;;5.20;2.73;;;;;;;4.38;88.57;100388.16;4991692;28;20186;-81
2023/02/02 02:47:21;;;;;;;3.97;2.20;;;;;;;4.34;89.00;100398.72;4991553;28;20205;-82
2023/02/02 02:49:48;;;;;;;19.53;1.97;;;;;;;4.33;88.66;100401.66;4991685;28;20177;-81
2023/02/02 02:52:14;;;;;;;1.40;1.03;;;;;;;4.33;88.62;100402.47;4991390;28;20169;-83
2023/02/02 02:54:46;;;;;;;5.70;1.10;;;;;;;4.25;89.10;100410.34;4991573;28;20181;-83
2023/02/02 02:57:24;;;;;;;6.87;1.03;;;;;;;4.28;89.11;100402.50;4991994;28;20196;-83
2023/02/02 03:00:19;;;;;;;8.70;1.10;;;;;;;4.26;89.31;100406.53;4991614;28;20177;-83
2023/02/02 03:03:02;;;;;;;5.10;1.73;;;;;;;4.22;89.49;100419.81;4991504;28;20180;-82
2023/02/02 03:05:52;;;;;;;10.83;1.30;;;;;;;4.18;89.84;100419.50;4991373;28;20649;-79
2023/02/02 03:08:30;;;;;;;8.53;1.67;;;;;;;4.17;90.05;100411.66;4991182;28;20240;-81
2023/02/02 03:10:57;;;;;;;1.73;1.50;;;;;;;4.19;90.20;100409.50;4991232;28;20180;-81
2023/02/02 03:13:25;;;;;;;8.03;2.53;;;;;;;4.22;90.17;100410.88;4991355;28;20227;-82
2023/02/02 03:15:51;;;;;;;7.17;1.73;;;;;;;4.24;90.03;100406.00;4989870;28;20196;-82
2023/02/02 03:18:19;;;;;;;2.53;0.73;;;;;;;4.34;89.60;100417.66;4991314;28;20181;-82
2023/02/02 03:20:45;;;;;;;7.33;1.47;;;;;;;4.30;89.83;100404.91;4991190;28;20660;-82
2023/02/02 03:23:10;;;;;;;2.33;1.23;;;;;;;4.23;90.03;100413.31;4989918;28;20212;-82
2023/02/02 03:25:36;;;;;;;5.90;0.90;;;;;;;4.23;90.28;100415.22;4990987;28;20176;-82
2023/02/02 03:28:01;;;;;;;2.63;0.63;;;;;;;4.27;90.20;100417.09;4989847;28;20216;-84
2023/02/02 03:30:27;;;;;;;1.17;0.60;;;;;;;4.31;90.04;100420.88;4990992;28;20176;-83
2023/02/02 03:32:52;;;;;;;1.77;1.60;;;;;;;4.35;90.06;100426.56;4991250;28;20725;-78
2023/02/02 03:35:19;;;;;;;11.27;2.23;;;;;;;4.43;89.96;100423.31;4991174;28;20660;-81
2023/02/02 03:37:46;;;;;;;9.73;1.03;;;;;;;4.43;90.11;100423.31;4991159;28;20586;-82
2023/02/02 03:40:12;;;;;;;3.80;1.50;;;;;;;4.38;90.17;100423.31;4991204;28;20177;-80
2023/02/02 03:42:37;;;;;;;5.20;1.67;;;;;;;4.34;90.80;100435.75;4991051;28;20189;-79
2023/02/02 03:45:03;;;;;;;12.50;1.87;;;;;;;4.33;91.53;100444.94;4990988;28;20647;-81
2023/02/02 03:47:29;;;;;;;16.67;1.30;;;;;;;4.31;91.77;100453.31;4990981;28;20201;-81
2023/02/02 03:49:54;;;;;;;17.43;2.17;;;;;;;4.38;91.19;100445.78;4990899;28;20174;-80
2023/02/02 03:52:20;;;;;;;9.03;2.50;;;;;;;4.43;91.16;100453.06;4990980;28;20185;-79
2023/02/02 03:54:45;;;;;;;5.00;1.70;;;;;;;4.39;90.93;100438.47;4991051;28;20174;-82
2023/02/02 03:57:10;;;;;;;8.43;1.70;;;;;;;4.36;90.82;100447.94;4990825;28;20182;-81
2023/02/02 03:59:35;;;;;;;12.37;0.80;;;;;;;4.28;91.36;100443.06;4991007;28;20185;-83
2023/02/02 04:02:01;;;;;;;11.50;1.73;;;;;;;4.20;91.96;100449.00;4990722;28;20177;-83
2023/02/02 04:04:26;;;;;;;3.30;1.37;;;;;;;4.19;92.47;100452.75;4990896;28;20602;-81
2023/02/02 04:06:51;;;;;;;6.10;1.47;;;;;;;4.21;93.28;100468.75;4990912;28;20184;-82
2023/02/02 04:09:17;;;;;;;3.20;1.20;;;;;;;4.21;93.70;100458.75;4990843;28;20196;-83
2023/02/02 04:11:42;;;;;;;6.67;2.37;;;;;;;4.27;94.19;100463.06;4990518;28;20261;-81
2023/02/02 04:14:09;;;;;;;16.03;3.70;;;;;;;4.23;94.54;100463.88;4990908;28;20190;-83
2023/02/02 04:16:36;;;;;;;15.30;2.73;;;;;;;4.18;95.23;100470.88;4989450;28;20181;-81
2023/02/02 04:19:02;;;;;;;3.73;0.87;;;;;;;4.23;95.96;100470.09;4991825;28;20178;-82
2023/02/02 04:21:27;;;;;;;8.33;2.47;;;;;;;4.24;96.51;100471.72;4993939;28;20181;-80
2023/02/02 04:23:53;;;;;;;6.43;1.63;;;;;;;4.32;96.48;100475.78;4994057;28;20180;-82
2023/02/02 04:26:19;;;;;;;10.10;1.63;;;;;;;4.33;96.23;100475.50;4994249;28;20178;-83
2023/02/02 04:28:44;;;;;;;2.67;0.77;;;;;;;4.33;96.51;100486.31;4994098;28;20209;-83
2023/02/02 04:31:09;;;;;;;0.60;0.60;;;;;;;4.35;97.20;100478.78;4994225;28;20181;-82
2023/02/02 04:33:35;;;;;;;16.70;2.67;;;;;;;4.32;97.52;100483.88;4994122;28;20559;-79
2023/02/02 04:36:01;;;;;;;4.63;2.30;;;;;;;4.41;97.62;100477.69;4994015;28;20677;-82
2023/02/02 04:38:26;;;;;;;2.73;0.53;;;;;;;4.46;97.37;100484.97;4993922;28;20177;-82
2023/02/02 04:40:51;;;;;;;3.73;3.07;;;;;;;4.46;97.39;100490.38;4993797;28;20177;-82
2023/02/02 04:43:17;;;;;;;6.33;1.80;;;;;;;4.37;97.74;100489.31;4993907;28;20177;-82
2023/02/02 04:45:42;;;;;;;12.30;2.17;;;;;;;4.38;98.28;100480.94;4994118;28;20578;-81
2023/02/02 04:48:08;;;;;;;3.77;1.13;;;;;;;4.36;98.05;100485.00;4995861;28;20267;-79
2023/02/02 04:50:33;;;;;;;9.27;1.53;;;;;;;4.35;98.26;100492.28;5013105;28;20169;-82
2023/02/02 04:52:58;;;;;;;8.70;2.43;;;;;;;4.30;98.52;100492.25;5013389;28;20653;-79
2023/02/02 04:55:24;;;;;;;12.67;2.10;;;;;;;4.23;99.19;100485.50;5013231;28;20177;-83
2023/02/02 04:57:49;;;;;;;6.13;2.20;;;;;;;4.21;99.12;100484.97;5013151;28;20206;-84
2023/02/02 05:00:15;;;;;;;20.70;1.97;;;;;;;4.18;99.67;100473.59;5013125;28;20173;-82
2023/02/02 05:02:40;;;;;;;1.30;0.87;;;;;;;4.22;99.73;100500.13;5013122;28;20176;-80
2023/02/02 05:05:09;;;;;;;8.27;2.07;;;;;;;4.18;99.68;100521.44;5013032;28;20268;-77
2023/02/02 05:07:34;;;;;;;9.70;2.30;;;;;;;4.16;99.68;100499.28;5012860;28;20215;-80
2023/02/02 05:09:59;;;;;;;14.23;2.23;;;;;;;4.14;99.87;100491.44;5012845;28;20176;-79
2023/02/02 05:12:25;;;;;;;3.00;1.50;;;;;;;4.14;100.00;100499.53;5012840;28;20186;-80
2023/02/02 05:14:50;;;;;;;6.43;1.47;;;;;;;4.14;100.00;100501.44;5012956;28;20181;-78
2023/02/02 05:17:16;;;;;;;6.87;1.10;;;;;;;4.12;100.00;100496.28;5012876;28;20184;-76
2023/02/02 05:19:41;;;;;;;1.60;0.90;;;;;;;4.12;100.00;100504.41;5012734;28;20192;-81
2023/02/02 05:22:06;;;;;;;8.80;1.77;;;;;;;4.09;100.00;100507.66;5011788;28;20271;-81
2023/02/02 05:24:32;;;;;;;0.80;0.43;;;;;;;4.07;100.00;100493.59;5012057;28;20187;-78
2023/02/02 05:26:59;;;;;;;16.47;2.73;;;;;;;4.12;100.00;100514.41;5012406;28;20196;-80
2023/02/02 05:29:26;;;;;;;5.23;2.07;;;;;;;4.17;100.00;100522.53;5012162;28;20408;-71
2023/02/02 05:31:51;;;;;;;10.03;1.50;;;;;;;4.13;100.00;100508.72;5012819;28;20176;-72
2023/02/02 05:34:16;;;;;;;16.43;2.47;;;;;;;4.13;100.00;100516.84;5014167;28;20187;-70
2023/02/02 05:36:42;;;;;;;2.97;1.90;;;;;;;4.18;100.00;100514.13;5012611;28;20179;-71
2023/02/02 05:39:08;;;;;;;4.70;1.67;;;;;;;4.15;100.00;100511.16;5012573;28;20761;-71
2023/02/02 05:41:34;;;;;;;17.97;2.13;;;;;;;4.18;100.00;100514.13;5012186;28;20179;-74
2023/02/02 05:43:59;;;;;;;13.93;2.70;;;;;;;4.22;99.87;100519.03;5012425;28;20535;-72
2023/02/02 05:46:25;;;;;;;7.17;1.80;;;;;;;4.23;100.00;100513.38;5012252;28;20210;-71
2023/02/02 05:48:50;;;;;;;3.63;1.53;;;;;;;4.24;99.80;100522.28;5012030;28;20259;-71
2023/02/02 05:51:20;;;;;;;7.73;2.00;;;;;;;4.26;99.65;100539.06;5011982;28;20238;-71
2023/02/02 05:53:46;;;;;;;1.80;1.70;;;;;;;4.14;99.63;100531.97;5012351;28;20185;-71
2023/02/02 05:56:12;;;;;;;13.93;1.37;;;;;;;4.18;100.00;100534.97;5012054;28;20175;-71
2023/02/02 05:58:38;;;;;;;5.83;1.87;;;;;;;4.14;100.00;100539.28;5012199;28;20509;-75
2023/02/02 06:01:03;;;;;;;19.10;3.60;;;;;;;4.10;100.00;100541.72;5011795;28;20180;-72
2023/02/02 06:03:28;;;;;;;5.97;1.33;;;;;;;4.13;100.00;100551.19;5011929;28;20211;-71
2023/02/02 06:05:54;;;;;;;1.83;1.17;;;;;;;4.06;100.00;100545.22;5012001;28;20239;-71
2023/02/02 06:08:19;;;;;;;1.50;1.17;;;;;;;4.03;100.00;100551.13;5011798;28;20247;-71
2023/02/02 06:10:44;;;;;;;0.80;0.80;;;;;;;4.01;100.00;100553.31;5011966;28;20592;-73
2023/02/02 06:13:10;;;;;;;8.63;1.37;;;;;;;4.01;100.00;100562.22;5011821;28;20173;-71
2023/02/02 06:15:36;;;;;;;13.03;1.77;;;;;;;3.97;100.00;100558.44;5011650;28;20183;-71
2023/02/02 06:18:01;;;;;;;9.63;2.03;;;;;;;3.97;100.00;100566.53;5011648;28;20247;-72
2023/02/02 06:20:27;;;;;;;6.83;2.17;;;;;;;3.97;100.00;100571.13;5011450;28;20195;-72
2023/02/02 06:22:53;;;;;;;0.77;0.53;;;;;;;3.94;100.00;100566.25;5011500;28;20180;-73
2023/02/02 06:25:18;;;;;;;9.53;1.87;;;;;;;3.90;100.00;100579.47;5011575;28;20214;-71
2023/02/02 06:27:45;;;;;;;4.97;1.40;;;;;;;3.89;100.00;100583.25;5011324;28;20206;-71
2023/02/02 06:30:12;;;;;;;3.87;1.17;;;;;;;3.92;100.00;100576.53;5011288;28;20172;-70
2023/02/02 06:32:38;;;;;;;11.00;1.70;;;;;;;3.93;100.00;100578.16;5010153;28;20691;-72
2023/02/02 06:35:04;;;;;;;1.73;1.00;;;;;;;3.95;100.00;100582.22;5011619;28;20184;-71
2023/02/02 06:37:29;;;;;;;12.90;2.87;;;;;;;3.98;100.00;100592.50;5011305;28;20215;-72
2023/02/02 06:39:55;;;;;;;3.50;1.70;;;;;;;3.98;100.00;100595.19;5011271;28;20192;-71
2023/02/02 06:42:20;;;;;;;18.43;0.37;;;;;;;4.00;100.00;100601.16;5010681;28;20169;-76
2023/02/02 06:44:45;;;;;;;6.77;3.37;;;;;;;4.02;100.00;100603.56;5011340;28;20168;-71
2023/02/02 06:47:10;;;;;;;3.30;1.60;;;;;;;4.02;100.00;100600.88;5011157;28;20211;-71
2023/02/02 06:49:36;;;;;;;3.37;1.60;;;;;;;4.05;100.00;100603.03;5011204;28;20613;-71
2023/02/02 06:52:01;;;;;;;10.03;1.30;;;;;;;3.99;100.00;100599.53;5011028;28;20175;-77
2023/02/02 06:54:26;;;;;;;3.33;1.10;;;;;;;3.95;100.00;100603.03;5011150;28;20512;-71
2023/02/02 06:56:52;;;;;;;1.43;0.43;;;;;;;3.95;100.00;100601.13;5011071;28;20180;-70
2023/02/02 06:59:19;;;;;;;5.20;0.83;;;;;;;4.04;100.00;100606.81;5011220;28;20515;-71
2023/02/02 07:01:44;;;;;;;12.13;2.23;;;;;;;4.09;100.00;100615.78;5010972;28;20179;-71
2023/02/02 07:04:10;;;;;;;2.60;1.37;;;;;;;4.09;100.00;100609.56;5011028;28;20180;-73
2023/02/02 07:06:35;;;;;;;7.93;1.60;;;;;;;4.03;100.00;100618.72;5011155;28;20176;-71
2023/02/02 07:09:00;;;;;;;20.80;1.70;;;;;;;4.03;100.00;100616.00;5009543;28;20219;-71
2023/02/02 07:11:25;;;;;;;5.87;1.80;;;;;;;4.09;100.00;100615.78;5010700;28;20175;-71
2023/02/02 07:13:51;;;;;;;1.50;1.20;;;;;;;4.18;100.00;100611.47;5010971;28;20187;-71
2023/02/02 07:16:17;;;;;;;5.87;1.13;;;;;;;4.28;100.00;100618.81;5011125;28;20183;-71
2023/02/02 07:18:43;;;;;;;5.93;0.93;;;;;;;4.35;100.00;100621.31;5010909;28;20192;-71
2023/02/02 07:21:18;;;;;;;0.23;0.23;;;;;;;4.40;100.00;100621.31;5010515;28;20173;-71
2023/02/02 07:23:44;;;;;;;16.73;2.23;;;;;;;4.44;100.00;100628.63;5010532;28;20650;-71
2023/02/02 07:26:11;;;;;;;30.20;4.30;;;;;;;4.45;100.00;100624.03;5010789;28;20172;-75
2023/02/02 07:28:37;;;;;;;3.83;0.30;;;;;;;4.44;100.00;100627.81;5010678;28;20298;-70
2023/02/02 07:31:19;;;;;;;2.00;0.73;;;;;;;4.40;100.00;100632.13;4998655;28;20218;-71
2023/02/02 07:33:45;;;;;;;9.23;0.57;;;;;;;4.41;100.00;100629.16;4991329;28;20209;-72
2023/02/02 07:36:15;;;;;;;0.47;0.47;;;;;;;4.43;100.00;100637.00;4991002;28;20208;-72
2023/02/02 07:38:40;;;;;;;2.20;0.87;;;;;;;4.41;100.00;100642.69;4991132;28;20235;-71
2023/02/02 07:41:05;;;;;;;0.77;0.67;;;;;;;4.39;100.00;100639.44;4990879;28;20629;-72
2023/02/02 07:43:30;;;;;;;5.77;1.53;;;;;;;4.39;100.00;100639.44;4989792;28;20192;-71
2023/02/02 07:46:01;;;;;;;1.20;0.83;;;;;;;4.42;100.00;100636.19;4990936;28;20219;-71
2023/02/02 07:48:29;;;;;;;0.80;0.80;;;;;;;4.47;100.00;100646.19;4990967;28;20677;-72
2023/02/02 07:51:03;;;;;;;4.53;1.80;;;;;;;4.48;100.00;100645.13;4990700;28;20196;-72
2023/02/02 07:53:28;;;;;;;11.53;1.73;;;;;;;4.51;100.00;100643.81;4991327;28;20576;-73
2023/02/02 07:56:07;;;;;;;2.97;1.73;;;;;;;4.54;100.00;100645.97;4994837;28;20263;-71
2023/02/02 07:58:32;;;;;;;8.67;1.60;;;;;;;4.52;100.00;100646.22;4994781;28;20308;-71
2023/02/02 08:01:05;;;;;;;3.97;1.67;;;;;;;4.54;100.00;100654.91;4994546;28;20264;-72
2023/02/02 08:03:31;;;;;;;13.07;2.80;;;;;;;4.57;100.00;100645.44;4991984;28;20668;-72
2023/02/02 08:05:57;;;;;;;9.47;3.60;;;;;;;4.61;100.00;100655.44;4975077;28;20264;-71
2023/02/02 08:08:22;;;;;;;1.03;1.03;;;;;;;4.68;100.00;100660.63;4975130;28;20265;-71
2023/02/02 08:10:49;;;;;;;4.90;0.13;;;;;;;4.72;100.00;100667.13;4974867;28;20216;-71
2023/02/02 08:13:14;;;;;;;27.77;3.63;;;;;;;4.73;100.00;100660.63;4975031;28;20181;-72
2023/02/02 08:15:39;;;;;;;0.80;0.43;;;;;;;4.73;100.00;100666.84;4974964;28;20212;-73
2023/02/02 08:18:04;;;;;;;14.87;2.17;;;;;;;4.76;100.00;100676.31;4974907;28;20541;-73
2023/02/02 08:20:30;;;;;;;1.77;1.67;;;;;;;4.78;100.00;100671.47;4974579;28;20265;-71
2023/02/02 08:22:55;;;;;;;8.80;2.90;;;;;;;4.82;100.00;100674.47;4974767;28;20182;-74
2023/02/02 08:25:20;;;;;;;6.63;0.80;;;;;;;4.88;100.00;100693.13;4974635;28;20641;-71
2023/02/02 08:27:46;;;;;;;5.90;1.10;;;;;;;4.93;100.00;100692.34;4974612;28;20357;-72
2023/02/02 08:30:11;;;;;;;1.20;0.63;;;;;;;4.95;100.00;100698.31;4974421;28;20170;-73
2023/02/02 08:32:37;;;;;;;6.27;1.27;;;;;;;4.95;100.00;100699.13;4974694;28;20174;-74
2023/02/02 08:35:02;;;;;;;2.53;0.93;;;;;;;4.98;100.00;100705.88;4974670;28;20174;-72
2023/02/02 08:37:27;;;;;;;5.80;1.20;;;;;;;5.02;100.00;100705.06;4974619;28;20189;-74
2023/02/02 08:39:53;;;;;;;8.20;2.13;;;;;;;5.07;100.00;100704.28;4974528;28;20692;-71
2023/02/02 08:42:18;;;;;;;6.37;1.37;;;;;;;5.11;100.00;100712.69;4974290;28;20257;-73
2023/02/02 08:44:43;;;;;;;14.43;2.57;;;;;;;5.11;100.00;100708.09;4974307;28;20264;-76
2023/02/02 08:47:08;;;;;;;5.73;1.13;;;;;;;5.12;100.00;100728.66;4974263;28;20201;-72
2023/02/02 08:49:34;;;;;;;2.80;1.90;;;;;;;5.09;100.00;100723.78;4974333;28;20641;-71
2023/02/02 08:51:59;;;;;;;1.83;1.23;;;;;;;5.08;100.00;100722.97;4974304;28;20174;-74
2023/02/02 08:54:24;;;;;;;3.40;1.10;;;;;;;5.08;100.00;100719.47;4972916;28;20269;-72
2023/02/02 08:56:49;;;;;;;18.77;2.83;;;;;;;5.05;100.00;100728.91;4974009;28;20237;-75
2023/02/02 08:59:15;;;;;;;5.77;1.50;;;;;;;5.07;100.00;100729.47;4974051;28;20178;-72
2023/02/02 09:01:40;;;;;;;0.87;0.50;;;;;;;5.05;100.00;100737.03;4974084;28;20544;-73
2023/02/02 09:04:12;;;;;;;4.33;1.33;;;;;;;5.03;100.00;100738.38;4974149;28;20659;-72
2023/02/02 09:06:39;;;;;;;1.33;0.43;;;;;;;4.99;100.00;100738.09;4974071;28;20529;-72
2023/02/02 09:09:07;;;;;;;2.13;0.20;;;;;;;4.99;100.00;100738.09;4974074;28;20206;-73
2023/02/02 09:11:34;;;;;;;2.60;0.27;;;;;;;4.99;99.98;100737.28;4972470;28;20701;-72
2023/02/02 09:14:05;;;;;;;2.17;1.00;;;;;;;4.97;100.00;100739.47;4972730;28;20185;-80
2023/02/02 09:16:30;;;;;;;10.40;1.37;;;;;;;4.96;100.00;100746.78;4973936;28;20634;-72
2023/02/02 09:18:56;;;;;;;6.40;1.00;;;;;;;4.94;99.85;100746.22;4973829;28;20201;-73
2023/02/02 09:21:22;;;;;;;13.80;1.90;;;;;;;4.96;99.61;100751.38;4973494;28;20198;-73
2023/02/02 09:23:49;;;;;;;1.07;1.03;;;;;;;5.00;99.44;100769.53;4973630;28;20257;-72
2023/02/02 09:26:16;;;;;;;8.13;2.60;;;;;;;5.05;99.70;100766.00;4973717;28;20533;-71
2023/02/02 09:28:45;;;;;;;7.33;0.70;;;;;;;5.08;100.00;100771.72;4973750;28;20210;-72
2023/02/02 09:31:11;;;;;;;0.10;0.10;;;;;;;5.10;100.00;100760.63;4973500;28;20539;-71
2023/02/02 09:33:37;;;;;;;7.00;1.60;;;;;;;5.09;99.78;100769.81;4973654;28;20472;-71
2023/02/02 09:36:13;;;;;;;7.53;0.50;;;;;;;5.11;99.44;100774.97;4973612;28;20173;-73
2023/02/02 09:38:39;;;;;;;30.77;6.37;;;;;;;5.14;99.67;100785.25;4974008;28;20184;-83
2023/02/02 09:41:20;;;;;;;2.17;0.90;;;;;;;5.15;100.00;100786.88;4973880;28;20170;-82
2023/02/02 09:44:15;;;;;;;15.63;1.70;;;;;;;5.12;99.70;100790.94;4973448;28;20260;-83
2023/02/02 09:46:56;;;;;;;2.70;0.63;;;;;;;5.11;100.00;100786.63;4973400;28;20166;-85
2023/02/02 09:49:38;;;;;;;2.87;2.47;;;;;;;5.10;100.00;100789.59;4973676;28;20178;-80
2023/02/02 09:52:13;;;;;;;7.13;1.50;;;;;;;5.17;100.00;100790.13;4973173;28;20552;-76
2023/02/02 09:54:45;;;;;;;1.87;1.47;;;;;;;5.23;99.90;100794.50;4973276;28;20641;-72
2023/02/02 09:57:22;;;;;;;0.93;0.73;;;;;;;5.28;99.57;100805.34;4973205;28;20253;-79
2023/02/02 09:59:49;;;;;;;23.23;1.90;;;;;;;5.34;99.66;100817.81;4973467;28;20170;-80
2023/02/02 10:02:23;;;;;;;2.97;1.20;;;;;;;5.34;99.86;100810.50;4973285;28;20186;-80
2023/02/02 10:04:53;;;;;;;5.83;2.10;;;;;;;5.36;99.40;100821.09;4973208;28;20527;-70
2023/02/02 10:07:29;;;;;;;1.60;1.43;;;;;;;5.38;99.27;100819.75;4972940;28;20208;-70
2023/02/02 10:10:04;;;;;;;7.17;1.53;;;;;;;5.42;99.09;100828.13;4972840;28;20236;-73
2023/02/02 10:12:51;;;;;;;0.73;0.17;;;;;;;5.49;99.04;100823.25;4973070;28;20216;-70
2023/02/02 10:15:37;;;;;;;3.77;0.70;;;;;;;5.55;99.25;100824.91;4972916;28;20200;-72
2023/02/02 10:18:54;;;;;;;4.90;1.80;;;;;;;5.55;98.58;100826.81;4970945;28;20197;-69
2023/02/02 10:21:31;;;;;;;3.10;0.83;;;;;;;5.55;98.33;100829.53;4956420;28;20240;-72
2023/02/02 10:23:57;;;;;;;1.50;0.20;;;;;;;5.59;98.24;100836.84;4972407;28;20265;-71
2023/02/02 10:26:46;;;;;;;12.37;1.13;;;;;;;5.60;97.67;100840.38;4971203;28;20285;-72
2023/02/02 10:29:20;;;;;;;2.63;1.17;;;;;;;5.65;97.80;100834.97;4972540;28;20217;-70
2023/02/02 10:31:54;;;;;;;4.63;0.50;;;;;;;5.70;97.48;100834.97;4972409;28;20181;-69
2023/02/02 10:34:30;;;;;;;5.93;0.77;;;;;;;5.64;97.39;100841.44;4972499;28;20234;-70
2023/02/02 10:37:24;;;;;;;4.97;1.47;;;;;;;5.66;97.56;100839.31;4972514;28;20181;-71
2023/02/02 10:39:58;;;;;;;0.40;0.40;;;;;;;5.71;97.85;100841.19;4972325;28;20276;-69
2023/02/02 10:42:39;;;;;;;4.53;0.50;;;;;;;5.65;97.65;100840.38;4972206;28;20534;-72
2023/02/02 10:45:31;;;;;;;1.83;0.93;;;;;;;5.66;97.64;100848.25;4972491;28;20185;-70
2023/02/02 10:47:56;;;;;;;1.10;0.60;;;;;;;5.66;97.52;100858.28;4971016;28;20225;-70
2023/02/02 10:50:22;;;;;;;9.80;1.00;;;;;;;5.67;96.55;100859.91;4972059;28;20309;-71
2023/02/02 10:52:53;;;;;;;5.17;2.00;;;;;;;5.71;96.65;100860.19;4972095;28;20178;-70
2023/02/02 10:55:31;;;;;;;0.97;0.70;;;;;;;5.79;96.74;100865.91;4972233;28;20174;-70
2023/02/02 10:58:11;;;;;;;0.43;0.37;;;;;;;5.90;96.34;100861.31;4972157;28;20169;-71
2023/02/02 11:01:01;;;;;;;4.13;1.27;;;;;;;5.95;95.69;100856.72;4971937;28;20174;-69
2023/02/02 11:03:29;;;;;;;0.77;0.33;;;;;;;5.86;95.02;100852.88;4972117;28;20166;-69
2023/02/02 11:08:43;;;;;;;6.10;1.50;;;;;;;5.88;94.74;100860.72;4972446;28;20264;-70
2023/02/02 11:11:17;;;;;;;1.33;0.53;;;;;;;5.85;94.95;100874.84;4971794;28;20182;-72
2023/02/02 11:13:52;;;;;;;1.60;0.67;;;;;;;5.84;95.03;100876.72;4972022;28;20181;-71
2023/02/02 11:16:20;;;;;;;0.63;0.63;;;;;;;5.95;96.05;100885.75;4971882;28;20252;-70
2023/02/02 11:18:45;;;;;;;5.20;1.20;;;;;;;5.94;95.02;100884.13;4971910;28;20178;-70
2023/02/02 11:21:32;;;;;;;2.37;0.50;;;;;;;5.93;95.35;100896.00;4970306;28;20186;-70
2023/02/02 11:24:19;;;;;;;6.93;1.23;;;;;;;5.95;96.03;100894.69;4970193;28;20189;-77
2023/02/02 11:26:48;;;;;;;11.43;1.17;;;;;;;5.94;95.77;100882.22;4970541;28;20189;-74
2023/02/02 11:29:37;;;;;;;7.40;1.60;;;;;;;5.95;96.01;100888.44;4975246;28;20654;-71
2023/02/02 11:32:26;;;;;;;1.13;1.03;;;;;;;5.95;95.87;100891.97;4971228;28;20190;-70
2023/02/02 11:35:07;;;;;;;11.33;2.07;;;;;;;5.95;95.48;100900.09;4975852;28;20174;-79
2023/02/02 11:37:54;;;;;;;1.20;0.63;;;;;;;5.89;95.55;100898.44;4974364;28;20276;-70
2023/02/02 11:40:29;;;;;;;1.13;1.07;;;;;;;5.90;96.00;100901.97;4973875;28;20177;-71
2023/02/02 11:42:56;;;;;;;1.00;0.93;;;;;;;5.83;95.89;100898.69;4975652;28;20178;-70
2023/02/02 11:45:29;;;;;;;3.20;0.73;;;;;;;5.81;95.93;100900.88;4975446;28;20210;-74
2023/02/02 11:48:01;;;;;;;0.27;0.27;;;;;;;5.81;95.87;100906.28;4974285;28;20201;-78
2023/02/02 11:50:27;;;;;;;0.43;0.43;;;;;;;5.81;95.73;100909.00;4975331;28;20182;-77
2023/02/02 11:52:53;;;;;;;1.60;1.07;;;;;;;5.81;95.95;100907.09;4973763;28;20182;-78